createdAt,value
2023-06-11T00:01:58.743Z,66.39
2023-06-11T00:05:02.733Z,67.15
2023-06-11T00:08:07.052Z,67.36
2023-06-11T00:11:10.993Z,69.02
2023-06-11T00:14:15.234Z,69.93
2023-06-11T00:17:18.855Z,69.69
2023-06-11T00:20:22.841Z,68.29
2023-06-11T00:23:27.002Z,67.78
2023-06-11T00:26:31.046Z,66.92
2023-06-11T00:29:34.736Z,67.37
2023-06-11T00:32:38.881Z,67.65
2023-06-11T00:35:45.013Z,69.00
2023-06-11T00:38:49.333Z,69.39
2023-06-11T00:41:53.563Z,68.82
2023-06-11T00:44:57.425Z,69.48
2023-06-11T00:48:02.749Z,69.33
2023-06-11T00:51:07.029Z,68.51
2023-06-11T00:54:12.182Z,68.62
2023-06-11T00:57:16.515Z,68.64
2023-06-11T01:00:22.152Z,70.10
2023-06-11T01:03:26.197Z,72.55
2023-06-11T01:06:30.136Z,72.33
2023-06-11T01:09:34.288Z,70.18
2023-06-11T01:12:38.415Z,69.30
2023-06-11T01:15:46.498Z,70.40
2023-06-11T01:18:50.392Z,70.88
2023-06-11T01:21:54.433Z,71.54
2023-06-11T01:24:58.454Z,69.57
2023-06-11T01:28:02.920Z,67.91
2023-06-11T01:31:07.151Z,70.16
2023-06-11T01:34:11.129Z,71.21
2023-06-11T01:37:16.269Z,72.24
2023-06-11T01:40:20.432Z,69.75
2023-06-11T01:43:24.624Z,70.46
2023-06-11T01:46:28.854Z,67.94
2023-06-11T01:49:32.727Z,68.56
2023-06-11T01:52:36.834Z,70.17
2023-06-11T01:55:40.715Z,70.29
2023-06-11T01:58:44.916Z,70.89
2023-06-11T02:01:49.170Z,71.25
2023-06-11T02:04:53.247Z,70.14
2023-06-11T02:07:58.481Z,68.80
2023-06-11T02:11:02.316Z,71.74
2023-06-11T02:14:06.337Z,71.71
2023-06-11T02:17:10.342Z,70.08
2023-06-11T02:20:14.115Z,67.93
2023-06-11T02:23:18.149Z,69.33
2023-06-11T02:26:22.028Z,67.19
2023-06-11T02:29:25.958Z,68.77
2023-06-11T02:32:31.134Z,68.42
2023-06-11T02:35:35.071Z,67.11
2023-06-11T02:38:39.100Z,66.45
2023-06-11T02:41:43.132Z,67.96
2023-06-11T02:44:47.080Z,68.35
2023-06-11T02:47:51.212Z,69.10
2023-06-11T02:50:55.191Z,68.83
2023-06-11T02:53:59.307Z,66.35
2023-06-11T02:57:03.295Z,67.33
2023-06-11T03:00:07.407Z,66.97
2023-06-11T03:03:14.502Z,67.60
2023-06-11T03:06:18.548Z,69.00
2023-06-11T03:09:22.377Z,66.81
2023-06-11T03:12:26.412Z,67.47
2023-06-11T03:15:30.411Z,66.88
2023-06-11T03:18:34.468Z,67.25
2023-06-11T03:21:38.464Z,66.69
2023-06-11T03:24:42.421Z,67.10
2023-06-11T03:27:47.672Z,68.09
2023-06-11T03:30:53.115Z,68.83
2023-06-11T03:33:57.038Z,68.00
2023-06-11T03:37:01.139Z,67.04
2023-06-11T03:40:05.041Z,66.46
2023-06-11T03:43:09.235Z,65.91
2023-06-11T03:46:13.191Z,65.31
2023-06-11T03:49:20.072Z,65.54
2023-06-11T03:52:23.971Z,68.77
2023-06-11T03:55:28.169Z,69.67
2023-06-11T03:58:31.922Z,69.46
2023-06-11T04:01:35.903Z,69.41
2023-06-11T04:04:39.845Z,71.29
2023-06-11T04:07:43.850Z,70.83
2023-06-11T04:10:51.082Z,68.17
2023-06-11T04:13:55.507Z,68.74
2023-06-11T04:16:59.683Z,67.01
2023-06-11T04:20:03.655Z,66.02
2023-06-11T04:23:07.731Z,68.44
2023-06-11T04:26:11.479Z,68.73
2023-06-11T04:29:15.498Z,68.66
2023-06-11T04:32:19.446Z,68.49
2023-06-11T04:35:23.497Z,69.03
2023-06-11T04:38:27.532Z,70.11
2023-06-11T04:41:31.602Z,69.19
2023-06-11T04:44:35.593Z,69.25
2023-06-11T04:47:39.656Z,69.12
2023-06-11T04:50:43.692Z,68.69
2023-06-11T04:53:47.712Z,68.94
2023-06-11T04:56:51.897Z,68.37
2023-06-11T04:59:56.002Z,68.65
2023-06-11T06:01:54.394Z,55.77
2023-06-11T06:21:39.223Z,51.31
2023-06-11T06:24:43.611Z,52.00
2023-06-11T06:30:28.347Z,57.15
2023-06-11T06:39:04.349Z,56.63
2023-06-11T06:42:08.554Z,58.43
2023-06-11T06:48:42.337Z,56.84
2023-06-11T06:51:50.152Z,57.42
2023-06-11T06:54:54.962Z,56.49
2023-06-11T07:03:57.243Z,53.32
2023-06-11T07:07:01.505Z,53.55
2023-06-11T07:10:07.168Z,55.71
2023-06-11T07:12:56.609Z,55.96
2023-06-11T07:19:31.413Z,56.57
2023-06-11T07:26:06.131Z,60.60
2023-06-11T07:29:12.513Z,60.47
2023-06-11T07:32:16.962Z,60.77
2023-06-11T07:35:22.205Z,59.07
2023-06-11T07:38:26.132Z,58.36
2023-06-11T07:41:30.215Z,60.13
2023-06-11T07:44:34.656Z,59.83
2023-06-11T07:47:38.790Z,61.51
2023-06-11T07:50:45.819Z,62.43
2023-06-11T07:53:50.156Z,60.31
2023-06-11T07:56:56.127Z,57.07
2023-06-11T08:00:00.374Z,57.72
2023-06-11T08:03:04.533Z,55.30
2023-06-11T08:06:08.941Z,55.06
2023-06-11T08:12:16.815Z,55.01
2023-06-11T08:15:21.041Z,55.02
2023-06-11T08:18:24.887Z,55.78
2023-06-11T08:21:28.877Z,58.48
2023-06-11T08:27:55.028Z,56.22
2023-06-11T08:30:58.703Z,55.41
2023-06-11T08:34:03.209Z,55.39
2023-06-11T08:37:07.554Z,57.33
2023-06-11T08:40:13.922Z,55.52
2023-06-11T08:46:42.001Z,55.34
2023-06-11T08:49:46.387Z,56.87
2023-06-11T08:56:12.087Z,56.03
2023-06-11T09:02:36.803Z,55.84
2023-06-11T09:05:40.805Z,55.65
2023-06-11T09:08:44.813Z,54.03
2023-06-11T09:11:49.022Z,56.18
2023-06-11T09:14:53.171Z,55.98
2023-06-11T09:18:00.122Z,56.38
2023-06-11T09:21:04.342Z,54.89
2023-06-11T09:24:08.216Z,52.76
2023-06-11T09:27:25.267Z,52.55
2023-06-11T09:30:32.332Z,54.22
2023-06-11T09:33:37.730Z,54.85
2023-06-11T09:36:44.165Z,55.62
2023-06-11T09:39:47.870Z,53.32
2023-06-11T09:42:51.838Z,53.86
2023-06-11T09:45:55.902Z,52.32
2023-06-11T09:49:00.333Z,53.09
2023-06-11T09:55:22.620Z,54.59
2023-06-11T09:58:26.936Z,53.36
2023-06-11T10:01:31.031Z,51.68
2023-06-11T10:04:37.116Z,50.00
2023-06-11T10:08:03.619Z,49.87
2023-06-11T10:11:10.858Z,48.36
2023-06-11T10:14:16.407Z,50.37
2023-06-11T10:17:20.816Z,51.64
2023-06-11T10:20:25.047Z,52.34
2023-06-11T10:23:28.993Z,51.35
2023-06-11T10:26:33.406Z,53.95
2023-06-11T10:29:37.788Z,52.41
2023-06-11T10:32:41.605Z,53.79
2023-06-11T10:35:47.393Z,54.36
2023-06-11T10:38:55.478Z,52.91
2023-06-11T10:41:59.956Z,51.42
2023-06-11T10:45:16.539Z,52.28
2023-06-11T10:48:24.010Z,50.60
2023-06-11T10:58:35.403Z,52.24
2023-06-11T11:01:36.937Z,51.21
2023-06-11T11:04:50.846Z,49.53
2023-06-11T11:11:36.609Z,50.35
2023-06-11T11:28:36.046Z,44.68
2023-06-11T11:35:10.311Z,48.63
2023-06-11T11:41:50.392Z,46.55
2023-06-11T11:44:59.120Z,45.18
2023-06-11T11:54:58.694Z,47.80
2023-06-11T11:58:09.488Z,38.21
2023-06-11T12:07:28.325Z,36.33
2023-06-11T12:10:32.614Z,35.41
2023-06-11T12:13:36.662Z,34.41
2023-06-11T12:16:40.715Z,36.83
2023-06-11T12:19:44.866Z,33.86
2023-06-11T12:22:48.558Z,34.86
2023-06-11T12:25:52.593Z,35.31
2023-06-11T12:28:56.740Z,36.07
2023-06-11T12:32:00.885Z,34.55
2023-06-11T12:35:04.927Z,35.62
2023-06-11T12:38:10.121Z,37.63
2023-06-11T12:41:15.928Z,39.30
2023-06-11T12:44:20.482Z,39.02
2023-06-11T12:47:24.635Z,39.19
2023-06-11T12:50:29.221Z,39.22
2023-06-11T12:53:35.472Z,38.60
2023-06-11T12:56:39.769Z,36.79
2023-06-11T12:59:44.510Z,35.50
2023-06-11T13:06:23.753Z,35.31
2023-06-11T13:09:27.911Z,35.76
2023-06-11T13:23:02.868Z,32.54
2023-06-11T13:26:09.153Z,33.42
2023-06-11T13:29:13.439Z,32.80
2023-06-11T13:35:40.607Z,32.27
2023-06-11T13:38:44.670Z,32.64
2023-06-11T13:41:48.692Z,32.23
2023-06-11T13:44:52.901Z,32.49
2023-06-11T13:47:56.917Z,31.58
2023-06-11T13:51:01.075Z,33.28
2023-06-11T13:54:05.381Z,33.97
2023-06-11T13:57:09.500Z,34.38
2023-06-11T14:00:13.619Z,34.65
2023-06-11T14:03:18.037Z,34.39
2023-06-11T14:06:22.358Z,33.67
2023-06-11T14:09:26.644Z,34.13
2023-06-11T14:12:32.035Z,34.82
2023-06-11T14:15:35.805Z,34.32
2023-06-11T14:18:39.664Z,33.28
2023-06-11T14:21:43.569Z,32.61
2023-06-11T14:24:47.788Z,33.43
2023-06-11T14:27:51.925Z,34.80
2023-06-11T14:30:55.892Z,33.68
2023-06-11T14:33:59.810Z,34.60
2023-06-11T14:37:04.030Z,34.74
2023-06-11T14:40:08.429Z,35.17
2023-06-11T14:43:12.419Z,35.15
2023-06-11T14:46:16.294Z,36.08
2023-06-11T14:49:20.384Z,35.19
2023-06-11T14:52:24.424Z,36.06
2023-06-11T14:55:28.647Z,36.49
2023-06-11T14:58:32.813Z,36.00
2023-06-11T15:01:36.435Z,37.06
2023-06-11T15:04:40.792Z,36.98
2023-06-11T15:07:44.959Z,37.18
2023-06-11T15:10:49.942Z,35.79
2023-06-11T15:13:54.024Z,36.52
2023-06-11T15:16:58.147Z,35.82
2023-06-11T15:20:02.331Z,35.45
2023-06-11T15:23:07.740Z,34.46
2023-06-11T15:26:13.941Z,34.42
2023-06-11T15:29:17.784Z,34.36
2023-06-11T15:32:21.793Z,33.60
2023-06-11T15:35:26.094Z,33.44
2023-06-11T15:38:30.263Z,32.47
2023-06-11T15:41:36.152Z,33.06
2023-06-11T15:44:40.051Z,33.01
2023-06-11T15:47:44.314Z,34.55
2023-06-11T15:50:48.599Z,34.05
2023-06-11T15:53:52.619Z,32.71
2023-06-11T15:56:56.735Z,32.01
2023-06-11T16:00:01.240Z,31.65
2023-06-11T16:03:05.535Z,30.58
2023-06-11T16:06:09.766Z,31.32
2023-06-11T16:09:13.828Z,31.21
2023-06-11T16:12:18.003Z,32.00
2023-06-11T16:15:22.174Z,31.02
2023-06-11T16:18:26.093Z,31.44
2023-06-11T16:21:30.118Z,31.60
2023-06-11T16:24:34.366Z,33.20
2023-06-11T16:27:38.425Z,31.09
2023-06-11T16:30:42.469Z,32.19
2023-06-11T16:33:57.143Z,31.99
2023-06-11T16:37:04.663Z,30.76
2023-06-11T16:40:08.746Z,31.97
2023-06-11T16:43:12.542Z,31.74
2023-06-11T16:46:16.664Z,32.91
2023-06-11T16:49:20.752Z,31.90
2023-06-11T16:52:25.015Z,30.77
2023-06-11T16:55:29.320Z,32.67
2023-06-11T16:58:33.448Z,32.57
2023-06-11T17:01:37.599Z,31.09
2023-06-11T17:04:42.062Z,31.96
2023-06-11T17:07:46.209Z,34.44
2023-06-11T17:10:50.119Z,36.48
2023-06-11T17:13:54.117Z,37.47
2023-06-11T17:16:58.321Z,37.65
2023-06-11T17:20:02.312Z,38.40
2023-06-11T17:23:06.201Z,39.39
2023-06-11T17:26:09.954Z,40.31
2023-06-11T17:29:13.988Z,39.71
2023-06-11T17:32:18.113Z,39.17
2023-06-11T17:35:22.378Z,40.29
2023-06-11T17:38:26.408Z,40.47
2023-06-11T17:41:30.251Z,40.63
2023-06-11T17:44:34.317Z,40.78
2023-06-11T17:47:38.838Z,41.09
2023-06-11T17:50:42.816Z,41.81
2023-06-11T17:53:47.042Z,41.74
2023-06-11T17:56:50.754Z,42.17
2023-06-11T17:59:56.905Z,42.37
2023-06-11T18:03:01.120Z,42.26
2023-06-11T18:06:04.898Z,41.69
2023-06-11T18:09:08.842Z,42.19
2023-06-11T18:12:12.729Z,42.38
2023-06-11T18:18:23.898Z,42.31
2023-06-11T18:21:30.775Z,43.25
2023-06-11T18:24:35.191Z,43.32
2023-06-11T18:27:39.398Z,43.72
2023-06-11T18:30:42.905Z,43.59
2023-06-11T18:33:47.188Z,43.54
2023-06-11T18:36:51.364Z,43.39
2023-06-11T18:39:55.350Z,42.88
2023-06-11T18:42:59.425Z,42.89
2023-06-11T18:46:03.485Z,42.99
2023-06-11T18:49:07.321Z,43.46
2023-06-11T18:52:11.388Z,43.30
2023-06-11T18:55:15.421Z,43.55
2023-06-11T18:58:19.358Z,43.46
2023-06-11T19:01:23.423Z,43.31
2023-06-11T19:04:27.580Z,43.71
2023-06-11T19:07:31.690Z,44.46
2023-06-11T19:10:35.801Z,44.85
2023-06-11T19:13:39.465Z,43.88
2023-06-11T19:16:43.659Z,43.42
2023-06-11T19:19:47.877Z,43.12
2023-06-11T19:22:51.846Z,43.81
2023-06-11T19:25:55.929Z,43.38
2023-06-11T19:29:00.401Z,43.63
2023-06-11T19:32:04.760Z,43.88
2023-06-11T19:35:08.756Z,44.54
2023-06-11T19:38:12.504Z,42.87
2023-06-11T19:41:16.641Z,42.74
2023-06-11T19:44:20.787Z,43.15
2023-06-11T19:47:25.149Z,43.75
2023-06-11T19:50:29.255Z,43.25
2023-06-11T19:53:33.562Z,44.13
2023-06-11T19:56:37.970Z,44.63
2023-06-11T19:59:42.272Z,43.63
2023-06-11T20:02:46.487Z,43.92
2023-06-11T20:05:51.888Z,44.39
2023-06-11T20:08:55.664Z,43.49
2023-06-11T20:11:59.874Z,43.57
2023-06-11T20:15:03.900Z,43.31
2023-06-11T20:18:08.207Z,42.86
2023-06-11T20:21:12.653Z,42.89
2023-06-11T20:24:18.441Z,43.23
2023-06-11T20:27:22.172Z,43.36
2023-06-11T20:30:26.261Z,45.76
2023-06-11T20:33:33.430Z,44.97
2023-06-11T20:36:37.599Z,45.40
2023-06-11T20:39:41.545Z,45.88
2023-06-11T20:42:45.266Z,46.53
2023-06-11T20:45:57.645Z,48.09
2023-06-11T20:49:02.275Z,49.48
2023-06-11T20:52:06.362Z,51.50
2023-06-11T20:55:10.851Z,50.78
2023-06-11T20:58:14.867Z,46.59
2023-06-11T21:01:18.867Z,44.87
2023-06-11T21:04:23.046Z,44.80
2023-06-11T21:07:27.244Z,44.12
2023-06-11T21:10:31.086Z,44.28
2023-06-11T21:13:34.888Z,44.51
2023-06-11T21:16:39.038Z,44.87
2023-06-11T21:19:43.428Z,44.60
2023-06-11T21:22:47.234Z,45.88
2023-06-11T21:25:51.211Z,44.79
2023-06-11T21:28:56.248Z,44.86
2023-06-11T21:32:01.664Z,45.01
2023-06-11T21:35:07.858Z,44.43
2023-06-11T21:38:30.380Z,44.39
2023-06-11T21:41:34.316Z,44.40
2023-06-11T21:48:02.479Z,44.41
2023-06-11T21:51:07.051Z,46.73
2023-06-11T21:54:11.034Z,48.84
2023-06-11T21:57:15.022Z,49.67
2023-06-11T22:00:19.289Z,50.86
2023-06-11T22:03:25.670Z,49.81
2023-06-11T22:06:30.229Z,48.48
2023-06-11T22:09:34.197Z,47.79
2023-06-11T22:12:41.875Z,47.39
2023-06-11T22:15:49.286Z,49.33
2023-06-11T22:18:53.319Z,49.16
2023-06-11T22:21:57.306Z,50.33
2023-06-11T22:25:02.559Z,49.79
2023-06-11T22:28:06.577Z,50.31
2023-06-11T22:31:10.470Z,49.53
2023-06-11T22:34:14.289Z,48.18
2023-06-11T22:37:20.582Z,49.15
2023-06-11T22:40:25.274Z,49.02
2023-06-11T22:46:55.593Z,48.31
2023-06-11T22:53:22.649Z,48.77
2023-06-11T22:56:28.496Z,49.54
2023-06-11T22:59:34.452Z,47.75
2023-06-11T23:09:32.053Z,49.55
2023-06-11T23:12:43.836Z,48.92
2023-06-11T23:15:50.982Z,49.80
2023-06-11T23:19:01.804Z,50.20
2023-06-11T23:38:51.977Z,51.70
2023-06-11T23:42:08.139Z,52.62
2023-06-11T23:45:18.924Z,54.43
2023-06-11T23:51:51.879Z,55.43
2023-06-11T23:58:30.470Z,53.24
